Time;durP1;ratioP1;P1;durP2;ratioP2;P2;SDS_P1;SDS_P2;PMS_P1;PMS_P2;Temp;Humidity;BMP_temperature;BMP_pressure;BME280_temperature;BME280_humidity;BME280_pressure;Samples;Min_cycle;Max_cycle;Signal;HPM_P1;HPM_P2
2023/04/11 00:02:33;;;;;;;22.90;12.23;;;;;;;10.05;75.21;100308.00;124831;1099;103966;-76
2023/04/11 00:05:04;;;;;;;;;;;;;;;10.04;76.62;100308.86;125029;1099;102314;-78
2023/04/11 00:07:37;;;;;;;22.87;11.10;;;;;;;10.03;76.66;100302.70;124982;1099;103961;-77
2023/04/11 00:10:10;;;;;;;24.73;12.17;;;;;;;10.01;76.37;100296.53;124953;1099;101670;-76
2023/04/11 00:12:42;;;;;;;23.83;12.00;;;;;;;9.98;76.55;100301.66;124407;1099;103934;-76
2023/04/11 00:15:16;;;;;;;22.93;12.50;;;;;;;9.95;76.21;100296.31;124797;1099;102015;-76
2023/04/11 00:17:48;;;;;;;23.37;12.63;;;;;;;9.93;76.59;100292.76;124782;1099;104043;-76
2023/04/11 00:20:20;;;;;;;24.53;12.27;;;;;;;9.90;76.38;100290.91;124708;1098;102986;-75
2023/04/11 00:22:53;;;;;;;22.30;11.73;;;;;;;9.88;76.41;100282.11;124499;1099;104037;-75
2023/04/11 00:25:26;;;;;;;22.37;12.73;;;;;;;9.87;77.28;100269.84;124385;1099;104076;-74
2023/04/11 00:27:58;;;;;;;22.93;12.13;;;;;;;9.85;77.00;100279.39;124306;1099;103977;-76
2023/04/11 00:30:31;;;;;;;22.37;12.17;;;;;;;9.85;77.32;100275.88;124396;1099;103441;-74
2023/04/11 00:33:03;;;;;;;23.07;11.97;;;;;;;9.82;77.33;100270.53;124773;1099;103945;-77
2023/04/11 00:35:36;;;;;;;23.27;12.30;;;;;;;9.82;77.50;100265.30;124936;1099;103952;-75
2023/04/11 00:38:09;;;;;;;23.10;11.83;;;;;;;9.80;78.17;100269.56;124783;1099;104064;-75
2023/04/11 00:40:41;;;;;;;23.03;12.37;;;;;;;9.80;78.15;100272.19;124766;1099;104127;-77
2023/04/11 00:43:14;;;;;;;26.30;12.13;;;;;;;9.79;77.83;100263.45;124606;1099;104037;-75
2023/04/11 00:45:47;;;;;;;23.90;12.93;;;;;;;9.80;78.10;100260.00;124499;1099;102185;-78
2023/04/11 00:48:19;;;;;;;22.60;11.77;;;;;;;9.79;77.43;100254.70;124611;1099;103958;-77
2023/04/11 00:50:52;;;;;;;23.73;12.00;;;;;;;9.80;78.19;100259.08;124481;1099;104431;-76
2023/04/11 00:53:24;;;;;;;22.67;11.53;;;;;;;9.81;77.91;100250.39;124487;1099;103977;-76
2023/04/11 00:55:57;;;;;;;21.97;12.17;;;;;;;9.82;77.40;100247.83;124928;1099;104133;-75
2023/04/11 00:58:32;;;;;;;21.73;12.00;;;;;;;9.83;78.23;100253.95;124929;1099;103945;-74
2023/04/11 01:01:08;;;;;;;24.17;11.27;;;;;;;9.83;78.03;100251.33;124788;1099;101608;-75
2023/04/11 01:03:41;;;;;;;21.17;10.80;;;;;;;9.83;78.14;100253.95;124796;1098;103996;-75
2023/04/11 01:06:16;;;;;;;20.37;11.08;;;;;;;9.83;77.98;100243.47;124933;1099;103958;-76
2023/04/11 01:08:50;;;;;;;24.60;11.90;;;;;;;9.84;78.22;100242.64;124871;1099;104040;-75
2023/04/11 01:11:24;;;;;;;21.47;11.10;;;;;;;9.84;78.75;100233.04;124889;1098;104006;-74
2023/04/11 01:13:57;;;;;;;22.17;11.57;;;;;;;9.83;78.11;100235.61;124439;1099;102937;-74
2023/04/11 01:16:29;;;;;;;21.93;11.67;;;;;;;9.83;78.62;100240.84;124370;1099;104037;-74
2023/04/11 01:19:01;;;;;;;23.40;11.67;;;;;;;9.83;78.91;100228.66;124319;1099;103246;-74
2023/04/11 01:21:36;;;;;;;20.77;10.97;;;;;;;9.82;78.49;100236.47;124404;1099;102890;-74
2023/04/11 01:24:10;;;;;;;23.97;11.93;;;;;;;9.82;78.21;100236.47;124814;1099;103949;-74
2023/04/11 01:26:42;;;;;;;23.85;11.15;;;;;;;9.80;79.76;100233.80;124452;1099;104130;-76
2023/04/11 01:29:15;;;;;;;22.23;11.70;;;;;;;9.79;79.44;100225.88;124457;1099;103929;-76
2023/04/11 01:31:48;;;;;;;23.50;11.70;;;;;;;9.79;79.32;100220.64;124724;1099;104040;-74
2023/04/11 01:34:21;;;;;;;24.07;11.80;;;;;;;9.75;79.48;100221.36;124364;1100;101676;-75
2023/04/11 01:36:54;;;;;;;24.87;11.20;;;;;;;9.75;79.25;100223.98;124501;1099;101918;-74
2023/04/11 01:39:27;;;;;;;22.43;11.90;;;;;;;9.74;79.42;100211.70;124593;1099;102948;-74
2023/04/11 01:42:01;;;;;;;24.17;11.83;;;;;;;9.73;79.68;100205.58;124462;1099;104040;-74
2023/04/11 01:44:35;;;;;;;23.53;12.07;;;;;;;9.72;79.33;100203.79;124730;1099;104031;-75
2023/04/11 01:47:08;;;;;;;23.13;11.50;;;;;;;9.71;79.72;100187.19;124845;1098;102098;-75
2023/04/11 01:49:41;;;;;;;20.70;10.20;;;;;;;9.69;78.95;100198.45;124810;1099;101672;-74
2023/04/11 01:52:14;;;;;;;23.00;11.43;;;;;;;9.68;78.80;100179.23;124439;1099;101597;-74
2023/04/11 01:54:47;;;;;;;22.57;10.73;;;;;;;9.66;78.91;100180.91;124361;1099;104057;-78
2023/04/11 01:57:19;;;;;;;24.50;11.33;;;;;;;9.66;79.95;100183.53;124381;1099;104721;-77
2023/04/11 01:59:52;;;;;;;20.87;11.03;;;;;;;9.65;79.43;100181.74;124425;1099;104009;-75
2023/04/11 02:02:24;;;;;;;21.37;10.53;;;;;;;9.66;79.09;100178.30;124388;1099;103942;-74
2023/04/11 02:04:57;;;;;;;23.53;11.57;;;;;;;9.65;78.97;100176.50;124497;1099;104159;-75
2023/04/11 02:07:29;;;;;;;22.90;11.67;;;;;;;9.66;79.34;100174.77;124775;1099;104066;-74
2023/04/11 02:10:01;;;;;;;21.90;11.13;;;;;;;9.67;79.27;100172.20;124776;1098;103961;-74
2023/04/11 02:12:34;;;;;;;23.67;11.10;;;;;;;9.67;79.42;100168.70;124848;1099;104033;-75
2023/04/11 02:15:07;;;;;;;22.63;11.43;;;;;;;9.65;79.67;100163.41;124483;1099;104040;-74
2023/04/11 02:17:44;;;;;;;22.55;11.40;;;;;;;9.66;79.39;100162.58;124380;1099;103925;-75
2023/04/11 02:20:16;;;;;;;23.23;11.67;;;;;;;9.66;79.38;100157.34;124435;1099;104053;-78
2023/04/11 02:22:49;;;;;;;22.30;12.00;;;;;;;9.66;79.09;100152.09;124463;1099;102213;-75
2023/04/11 02:25:21;;;;;;;22.60;11.93;;;;;;;9.66;79.55;100146.86;124673;1099;103954;-76
2023/04/11 02:27:53;;;;;;;25.10;12.60;;;;;;;9.64;79.45;100142.39;124839;1099;103996;-74
2023/04/11 02:30:26;;;;;;;;;;;;;;;9.62;79.58;100138.84;124927;1099;103942;-75
2023/04/11 02:32:58;;;;;;;22.90;12.20;;;;;;;9.61;79.46;100139.67;124414;1099;102726;-75
2023/04/11 02:35:30;;;;;;;24.17;12.83;;;;;;;9.62;79.81;100144.08;124554;1098;104015;-75
2023/04/11 02:38:05;;;;;;;25.77;12.67;;;;;;;9.61;79.07;100134.42;124382;1099;104142;-74
2023/04/11 02:40:37;;;;;;;21.77;11.57;;;;;;;9.62;79.44;100134.48;124412;1099;101807;-76
2023/04/11 02:43:12;;;;;;;24.20;12.00;;;;;;;9.58;79.09;100126.47;124640;1099;103983;-76
2023/04/11 02:45:45;;;;;;;21.53;11.00;;;;;;;9.56;79.52;100121.17;124421;1099;104082;-76
2023/04/11 02:48:17;;;;;;;21.47;10.30;;;;;;;9.55;79.61;100116.77;124951;1099;104116;-76
2023/04/11 02:50:50;;;;;;;23.83;11.03;;;;;;;9.54;79.27;100120.25;124574;1099;101876;-76
2023/04/11 02:53:23;;;;;;;26.13;10.50;;;;;;;9.53;79.57;100113.22;124580;1099;104137;-76
2023/04/11 02:55:55;;;;;;;25.23;11.30;;;;;;;9.52;79.68;100100.95;124471;1100;101832;-76
2023/04/11 02:58:27;;;;;;;22.53;12.30;;;;;;;9.51;79.09;100101.81;124460;1099;104161;-75
2023/04/11 03:01:02;;;;;;;25.45;11.78;;;;;;;9.50;79.73;100100.02;124441;1102;104057;-75
2023/04/11 03:03:34;;;;;;;23.50;11.93;;;;;;;9.49;79.61;100095.60;124575;1099;104015;-76
2023/04/11 03:06:07;;;;;;;23.47;11.40;;;;;;;9.49;79.66;100091.28;124533;1099;104050;-74
2023/04/11 03:08:41;;;;;;;22.83;11.43;;;;;;;9.49;79.69;100096.52;124821;1099;102710;-75
2023/04/11 03:11:13;;;;;;;22.70;11.13;;;;;;;9.49;79.31;100091.28;124781;1099;102118;-74
2023/04/11 03:13:46;;;;;;;21.80;11.80;;;;;;;9.49;78.96;100087.75;124472;1098;104000;-75
2023/04/11 03:16:19;;;;;;;24.23;11.33;;;;;;;9.49;79.38;100088.66;124399;1099;103964;-75
2023/04/11 03:18:51;;;;;;;21.17;11.00;;;;;;;9.49;79.57;100090.37;124561;1099;101679;-75
2023/04/11 03:21:24;;;;;;;22.73;11.27;;;;;;;9.48;78.89;100083.37;124445;1099;103014;-77
2023/04/11 03:23:56;;;;;;;26.13;11.60;;;;;;;9.48;78.99;100075.52;124376;1102;102141;-74
2023/04/11 03:26:29;;;;;;;22.93;10.87;;;;;;;9.47;79.37;100061.54;124661;1099;104082;-74
2023/04/11 03:29:04;;;;;;;21.63;10.53;;;;;;;9.46;79.48;100064.11;124438;1099;104137;-76
2023/04/11 03:31:40;;;;;;;21.60;10.33;;;;;;;9.46;78.77;100070.23;124532;1099;101967;-74
2023/04/11 03:34:13;;;;;;;20.83;10.53;;;;;;;9.47;79.30;100071.10;124562;1099;103964;-74
2023/04/11 03:36:45;;;;;;;22.17;10.27;;;;;;;9.47;79.01;100065.86;124446;1099;102173;-74
2023/04/11 03:39:18;;;;;;;20.17;10.20;;;;;;;9.46;79.21;100059.75;124338;1099;104140;-76
2023/04/11 03:41:50;;;;;;;20.00;9.93;;;;;;;9.47;78.38;100060.63;124494;1099;103971;-73
2023/04/11 03:44:24;;;;;;;21.53;9.93;;;;;;;9.48;79.07;100067.66;124486;1099;104064;-74
2023/04/11 03:46:57;;;;;;;21.87;11.10;;;;;;;9.48;78.86;100071.16;124616;1099;104043;-75
2023/04/11 03:49:30;;;;;;;24.30;11.48;;;;;;;9.48;78.80;100068.53;124406;1099;101869;-76
2023/04/11 03:52:04;;;;;;;23.17;11.50;;;;;;;9.50;78.24;100065.97;125074;1099;103967;-75
2023/04/11 03:54:37;;;;;;;21.60;10.90;;;;;;;9.53;77.78;100079.16;124784;1099;101931;-76
2023/04/11 03:57:10;;;;;;;25.63;11.87;;;;;;;9.53;77.91;100071.30;124515;1099;103974;-76
2023/04/11 03:59:42;;;;;;;23.77;12.50;;;;;;;9.56;78.17;100063.55;124462;1102;103467;-77
2023/04/11 04:02:18;;;;;;;24.77;13.17;;;;;;;9.55;78.48;100059.14;124601;1099;103989;-75
2023/04/11 04:04:57;;;;;;;23.37;11.13;;;;;;;9.57;78.01;100052.24;124472;1102;102828;-76
2023/04/11 04:07:34;;;;;;;21.80;11.13;;;;;;;9.58;77.67;100054.00;124502;1099;103954;-74
2023/04/11 04:10:29;;;;;;;26.20;10.63;;;;;;;9.60;78.25;100057.58;124754;1098;103977;-75
2023/04/11 04:13:02;;;;;;;19.47;9.47;;;;;;;9.61;77.57;100048.86;124580;1099;103971;-76
2023/04/11 04:15:41;;;;;;;21.80;10.37;;;;;;;9.64;77.25;100045.47;124532;1099;101791;-76
2023/04/11 04:18:14;;;;;;;20.13;9.87;;;;;;;9.65;76.41;100042.89;124518;1099;106833;-76
2023/04/11 04:20:51;;;;;;;24.23;10.63;;;;;;;9.67;77.33;100035.96;124520;1099;104021;-78
2023/04/11 04:23:25;;;;;;;23.37;11.03;;;;;;;9.73;76.86;100042.26;124591;1099;101808;-77
2023/04/11 04:26:05;;;;;;;24.50;10.57;;;;;;;9.75;77.12;100035.33;124710;1099;102122;-78
2023/04/11 04:28:39;;;;;;;20.32;10.03;;;;;;;9.78;77.43;100038.05;124674;1099;102899;-77
2023/04/11 04:31:14;;;;;;;22.58;10.82;;;;;;;9.80;76.91;100039.88;124714;1099;103357;-80
2023/04/11 04:33:48;;;;;;;21.97;10.47;;;;;;;9.83;76.98;100039.07;124972;1099;101988;-79
2023/04/11 04:36:31;;;;;;;22.30;11.27;;;;;;;9.83;76.00;100039.98;124724;1099;101956;-78
2023/04/11 04:39:03;;;;;;;21.87;10.37;;;;;;;9.84;75.08;100036.50;124764;1099;104031;-78
2023/04/11 04:41:39;;;;;;;22.43;10.13;;;;;;;9.87;75.33;100033.97;124906;1099;102158;-78
2023/04/11 04:44:14;;;;;;;19.83;9.63;;;;;;;9.90;75.37;100035.81;124633;1099;104194;-77
2023/04/11 04:46:54;;;;;;;21.33;10.13;;;;;;;9.92;75.27;100039.36;124725;1102;102599;-79
2023/04/11 04:49:29;;;;;;;23.10;10.17;;;;;;;9.95;75.58;100036.83;125373;1099;103977;-78
2023/04/11 04:52:02;;;;;;;20.63;10.10;;;;;;;9.98;76.22;100031.69;124968;1099;101773;-78
2023/04/11 04:54:34;;;;;;;21.55;9.90;;;;;;;10.00;75.20;100037.88;125035;1099;102020;-80
2023/04/11 04:57:07;;;;;;;21.37;9.90;;;;;;;10.02;73.65;100028.33;124940;1099;103061;-80
2023/04/11 04:59:39;;;;;;;19.57;9.07;;;;;;;10.03;72.75;100014.35;125092;1099;104018;-80
2023/04/11 05:02:17;;;;;;;20.03;9.97;;;;;;;10.09;73.97;100026.77;124945;1099;101989;-79
2023/04/11 05:04:52;;;;;;;18.97;9.63;;;;;;;10.15;75.07;100021.70;125033;1102;102338;-79
2023/04/11 05:07:26;;;;;;;20.30;9.97;;;;;;;10.18;73.41;100020.92;124729;1099;101839;-80
2023/04/11 05:09:59;;;;;;;21.15;9.75;;;;;;;10.20;73.99;100022.72;125167;1099;104037;-81
2023/04/11 05:12:34;;;;;;;25.17;10.93;;;;;;;10.26;74.41;100019.41;125119;1099;103993;-76
2023/04/11 05:15:13;;;;;;;19.87;9.90;;;;;;;10.27;73.16;100015.95;124882;1099;104044;-82
2023/04/11 05:17:48;;;;;;;21.53;10.07;;;;;;;10.34;73.62;100014.41;126140;1099;102175;-77
2023/04/11 05:20:23;;;;;;;21.23;10.13;;;;;;;10.40;72.53;100017.22;125005;1102;103714;-83
2023/04/11 05:22:57;;;;;;;22.93;9.90;;;;;;;10.47;73.07;100005.16;124982;1102;102759;-81
2023/04/11 05:25:31;;;;;;;20.43;10.07;;;;;;;10.51;72.38;99999.16;125119;1099;104046;-80
2023/04/11 05:28:08;;;;;;;20.43;9.37;;;;;;;10.57;72.72;100001.95;124895;1102;101972;-79
2023/04/11 07:54:08;;;;;;;26.97;14.00;;;;;;;8.98;90.60;99950.83;116284;1102;10001574;-78
2023/04/11 07:56:43;;;;;;;27.47;15.30;;;;;;;8.96;92.61;99944.67;125051;1105;102773;-80
2023/04/11 08:23:48;;;;;;;29.95;15.10;;;;;;;8.69;94.93;99930.66;116116;1102;10001418;-81
2023/04/11 08:26:24;;;;;;;28.83;15.83;;;;;;;8.72;93.94;99925.52;125335;1096;104308;-80
2023/04/11 08:29:02;;;;;;;31.23;17.47;;;;;;;8.73;93.83;99912.50;124710;1105;102759;-78
2023/04/11 08:31:36;;;;;;;32.63;18.07;;;;;;;8.84;93.79;99917.21;125542;1105;104284;-79
2023/04/11 08:34:10;;;;;;;32.60;17.67;;;;;;;8.88;94.78;99905.98;124471;1105;104230;-78
2023/04/11 08:38:42;;;;;;;27.45;14.95;;;;;;;8.89;94.95;99915.63;116836;1102;10001601;-79
2023/04/11 08:41:17;;;;;;;27.50;13.67;;;;;;;8.88;99.95;99895.52;124682;1102;103447;-86
2023/04/11 08:44:13;;;;;;;28.15;15.65;;;;;;;8.88;98.60;99898.14;125377;1102;104240;-82
2023/04/11 08:46:58;;;;;;;30.50;16.80;;;;;;;8.91;95.21;99901.77;124909;1102;104091;-80
2023/04/11 08:49:36;;;;;;;29.20;16.27;;;;;;;8.99;96.83;99894.13;125322;1102;104101;-85
2023/04/11 08:52:25;;;;;;;29.37;16.10;;;;;;;9.04;96.14;99876.88;125305;1102;104140;-82
2023/04/11 08:55:45;;;;;;;27.93;16.20;;;;;;;9.07;96.12;99863.89;124781;1102;102813;-82
2023/04/11 09:03:05;;;;;;;26.20;13.97;;;;;;;9.19;99.10;99881.69;124811;1102;102881;-78
2023/04/11 09:05:42;;;;;;;30.33;16.27;;;;;;;9.16;96.87;99877.27;124873;1105;104152;-83
2023/04/11 09:08:16;;;;;;;28.03;16.43;;;;;;;9.19;96.12;99873.83;125198;1106;104237;-81
2023/04/11 09:10:52;;;;;;;28.57;17.17;;;;;;;9.27;96.30;99869.75;124896;1105;103683;-79
2023/04/11 09:13:26;;;;;;;28.07;16.17;;;;;;;9.32;99.14;99870.77;124652;1105;102819;-79
2023/04/11 09:16:10;;;;;;;27.63;14.43;;;;;;;9.32;99.76;99867.27;124565;1104;102314;-81
2023/04/11 09:18:45;;;;;;;27.13;14.63;;;;;;;9.27;97.38;99863.59;124391;1105;104361;-79
2023/04/11 09:21:22;;;;;;;31.20;16.37;;;;;;;9.18;100.00;99862.48;124497;1105;104710;-82
2023/04/11 09:24:16;;;;;;;31.83;17.10;;;;;;;9.20;97.34;99856.42;124971;1102;104181;-83
2023/04/11 09:26:50;;;;;;;27.90;15.07;;;;;;;9.28;97.32;99854.91;124921;1102;103029;-80
2023/04/11 09:29:38;;;;;;;32.63;17.33;;;;;;;9.29;96.98;99848.85;124728;1102;104268;-82
2023/04/11 09:32:36;;;;;;;28.53;14.97;;;;;;;9.28;100.00;99847.06;124708;1102;104678;-82
2023/04/11 09:35:17;;;;;;;32.37;16.70;;;;;;;9.30;98.07;99842.75;125009;1102;104364;-87
2023/04/11 09:38:08;;;;;;;32.83;16.10;;;;;;;9.31;100.00;99849.77;125578;1102;102614;-86
2023/04/11 09:40:47;;;;;;;26.83;15.50;;;;;;;9.27;98.97;99842.66;125748;1102;101984;-82
2023/04/11 09:43:28;;;;;;;28.17;16.73;;;;;;;9.28;98.04;99837.47;125404;1102;102884;-81
2023/04/11 09:46:17;;;;;;;29.10;16.90;;;;;;;9.30;100.00;99837.52;125134;1102;104303;-85
2023/04/11 09:48:53;;;;;;;23.83;12.07;;;;;;;9.25;100.00;99834.76;125742;1102;102476;-84
2023/04/11 09:51:29;;;;;;;28.17;13.18;;;;;;;9.17;100.00;99838.88;116936;1102;10001958;-82
2023/04/11 09:54:06;;;;;;;28.10;15.00;;;;;;;9.14;100.00;99823.08;125133;1102;102715;-85
2023/04/11 09:56:43;;;;;;;27.90;15.00;;;;;;;9.13;100.00;99819.59;125732;1102;102950;-81
2023/04/11 09:59:43;;;;;;;28.20;14.27;;;;;;;9.17;100.00;99810.09;125800;1102;102137;-81
2023/04/11 10:02:26;;;;;;;29.07;14.93;;;;;;;9.23;100.00;99814.63;125907;1102;104175;-85
2023/04/11 10:05:03;;;;;;;29.73;15.77;;;;;;;9.28;100.00;99792.96;125167;1102;104325;-82
2023/04/11 10:07:44;;;;;;;29.60;16.83;;;;;;;9.31;100.00;99798.29;125165;1102;102138;-81
2023/04/11 10:10:24;;;;;;;29.13;17.17;;;;;;;9.37;99.53;99789.73;125130;1102;104209;-81
2023/04/11 10:13:00;;;;;;;30.53;16.60;;;;;;;9.44;99.93;99791.70;126275;1101;103038;-83
2023/04/11 10:15:59;;;;;;;26.80;15.23;;;;;;;9.50;100.00;99789.23;126226;1102;102690;-84
2023/04/11 10:18:35;;;;;;;31.13;16.30;;;;;;;9.57;99.56;99777.22;126040;1102;102792;-83
2023/04/11 10:21:42;;;;;;;31.63;16.87;;;;;;;9.62;100.00;99777.34;126119;1102;102987;-82
2023/04/11 10:24:15;;;;;;;34.35;17.30;;;;;;;9.67;100.00;99770.49;126096;1102;102486;-81
2023/04/11 10:26:51;;;;;;;30.27;16.23;;;;;;;9.76;100.00;99762.02;126233;1101;101929;-80
2023/04/11 10:29:54;;;;;;;27.97;15.90;;;;;;;9.85;100.00;99760.52;125943;1102;102738;-79
2023/04/11 10:32:37;;;;;;;26.57;14.53;;;;;;;9.95;100.00;99756.39;126230;1102;102405;-82
2023/04/11 10:35:30;;;;;;;;;;;;;;;9.94;100.00;99759.88;126182;1101;102115;-84
2023/04/11 10:38:05;;;;;;;26.00;13.43;;;;;;;9.88;100.00;99755.36;126257;1101;101879;-81
2023/04/11 10:40:58;;;;;;;27.40;14.10;;;;;;;9.87;100.00;99750.08;126088;1102;101900;-85
2023/04/11 10:43:36;;;;;;;26.53;14.57;;;;;;;9.88;100.00;99744.88;126191;1102;102643;-83
2023/04/11 10:46:22;;;;;;;26.50;15.20;;;;;;;9.89;100.00;99740.51;117394;1101;10001650;-80
2023/04/11 10:49:02;;;;;;;27.37;14.50;;;;;;;9.90;100.00;99739.67;126147;1101;101927;-80
2023/04/11 10:51:34;;;;;;;27.00;14.10;;;;;;;9.89;100.00;99733.56;126396;1100;102583;-81
2023/04/11 10:54:24;;;;;;;26.37;13.50;;;;;;;9.89;100.00;99730.94;126482;1101;102714;-80
2023/04/11 10:56:58;;;;;;;25.73;13.50;;;;;;;9.95;100.00;99735.43;126124;1102;102889;-85
2023/04/11 11:00:13;;;;;;;26.65;14.18;;;;;;;9.95;100.00;99730.19;126097;1101;101954;-80
2023/04/11 11:02:53;;;;;;;24.70;12.53;;;;;;;9.91;100.00;99723.12;125828;1101;102183;-81
2023/04/11 11:05:30;;;;;;;23.70;12.73;;;;;;;9.86;100.00;99711.61;125493;1102;104175;-80
2023/04/11 11:08:06;;;;;;;25.00;12.53;;;;;;;9.78;100.00;99711.41;125631;1102;104242;-83
2023/04/11 11:10:45;;;;;;;;;;;;;;;9.73;100.00;99713.02;125730;1102;104162;-81
2023/04/11 11:13:17;;;;;;;25.30;13.27;;;;;;;9.65;100.00;99720.68;125758;1102;102261;-79
2023/04/11 11:15:52;;;;;;;25.17;13.50;;;;;;;9.59;100.00;99696.06;125268;1102;104194;-80
2023/04/11 11:18:23;;;;;;;24.00;13.87;;;;;;;9.52;100.00;99694.98;125087;1102;104157;-81
2023/04/11 11:20:58;;;;;;;27.37;15.07;;;;;;;9.48;100.00;99682.68;124986;1102;104226;-80
2023/04/11 11:23:29;;;;;;;26.10;13.53;;;;;;;9.50;100.00;99667.88;125829;1102;103460;-81
2023/04/11 11:26:07;;;;;;;26.63;13.17;;;;;;;9.46;100.00;99669.55;125607;1102;103095;-79
2023/04/11 11:28:50;;;;;;;24.00;13.27;;;;;;;9.42;100.00;99679.89;125807;1101;102507;-82
2023/04/11 11:31:38;;;;;;;25.23;13.90;;;;;;;9.43;100.00;99676.44;125141;1099;103287;-79
2023/04/11 11:34:26;;;;;;;27.13;14.45;;;;;;;9.44;100.00;99678.19;125457;1099;104203;-82
2023/04/11 11:37:13;;;;;;;28.53;13.27;;;;;;;9.43;100.00;99673.82;125877;1099;102836;-81
2023/04/11 11:39:50;;;;;;;28.43;15.30;;;;;;;9.41;100.00;99672.87;125978;1099;102235;-81
2023/04/11 11:42:38;;;;;;;27.07;13.33;;;;;;;9.38;100.00;99668.46;126371;1099;103207;-81
2023/04/11 11:45:22;;;;;;;24.70;13.97;;;;;;;9.40;100.00;99665.88;126463;1099;104209;-82
2023/04/11 11:47:59;;;;;;;25.23;12.97;;;;;;;9.42;100.00;99667.67;126392;1099;104181;-82
2023/04/11 11:50:39;;;;;;;;;;;;;;;9.40;100.00;99676.36;126435;1099;102679;-80
2023/04/11 11:53:21;;;;;;;29.90;13.90;;;;;;;9.38;100.00;99662.31;126435;1099;104146;-82
2023/04/11 11:56:03;;;;;;;28.40;14.20;;;;;;;9.42;100.00;99669.42;126446;1099;102740;-79
2023/04/11 11:59:06;;;;;;;25.47;14.33;;;;;;;9.43;100.00;99656.37;125977;1099;119376;-82
2023/04/11 12:01:59;;;;;;;30.47;13.40;;;;;;;9.45;100.00;99651.17;126392;1099;102966;-83
2023/04/11 12:04:49;;;;;;;26.27;12.77;;;;;;;9.46;100.00;99648.59;126475;1099;103023;-80
2023/04/11 12:07:31;;;;;;;26.83;14.10;;;;;;;9.48;100.00;99639.03;125904;1099;107320;-79
2023/04/11 12:10:10;;;;;;;24.70;13.30;;;;;;;9.50;100.00;99637.33;125896;1102;102575;-81
2023/04/11 12:12:49;;;;;;;24.87;12.43;;;;;;;9.50;100.00;99633.84;125547;1099;104253;-81
2023/04/11 12:15:23;;;;;;;26.33;13.37;;;;;;;9.51;100.00;99626.02;125677;1099;102977;-84
2023/04/11 12:17:58;;;;;;;25.13;12.80;;;;;;;9.51;100.00;99633.88;126426;1099;102996;-81
2023/04/11 12:20:33;;;;;;;23.40;12.50;;;;;;;9.51;100.00;99633.00;126340;1099;102843;-79
2023/04/11 12:23:19;;;;;;;22.83;11.10;;;;;;;9.50;100.00;99632.09;125402;1099;102119;-82
2023/04/11 12:25:54;;;;;;;26.20;12.40;;;;;;;9.47;100.00;99624.19;126317;1098;104743;-78
2023/04/11 12:28:28;;;;;;;23.23;12.10;;;;;;;9.48;100.00;99619.83;125241;1099;104178;-81
2023/04/11 12:30:59;;;;;;;22.75;11.25;;;;;;;9.48;100.00;99625.94;125563;1099;102868;-84
2023/04/11 12:33:48;;;;;;;25.00;12.60;;;;;;;9.45;100.00;99624.98;126501;1099;102167;-81
2023/04/11 12:36:30;;;;;;;23.30;11.70;;;;;;;9.47;100.00;99613.72;125757;1099;102269;-82
2023/04/11 12:39:03;;;;;;;22.67;11.33;;;;;;;9.50;100.00;99608.52;126332;1099;102872;-80
2023/04/11 12:41:42;;;;;;;26.90;13.87;;;;;;;9.53;100.00;99599.88;125742;1100;104172;-83
2023/04/11 12:44:20;;;;;;;22.17;11.57;;;;;;;9.57;100.00;99601.73;126406;1098;103340;-82
2023/04/11 12:46:53;;;;;;;19.97;10.57;;;;;;;9.56;100.00;99593.84;125810;1099;103877;-80
2023/04/11 12:49:33;;;;;;;22.07;10.37;;;;;;;9.55;100.00;99590.31;126530;1099;102891;-77
2023/04/11 12:52:14;;;;;;;24.40;11.57;;;;;;;9.57;100.00;99586.02;126425;1099;102297;-80
2023/04/11 12:55:04;;;;;;;22.97;12.13;;;;;;;9.60;100.00;99586.09;125791;1099;102695;-82
2023/04/11 12:57:46;;;;;;;22.57;12.40;;;;;;;9.61;100.00;99582.61;126402;1099;102362;-79
2023/04/11 13:00:35;;;;;;;24.93;12.93;;;;;;;9.61;100.00;99582.61;125690;1098;110099;-81
2023/04/11 13:03:11;;;;;;;23.43;12.27;;;;;;;9.62;100.00;99581.77;126424;1099;102207;-79
2023/04/11 13:05:49;;;;;;;21.03;11.87;;;;;;;9.62;100.00;99578.28;126315;1099;104153;-81
2023/04/11 13:08:26;;;;;;;26.57;12.90;;;;;;;9.59;100.00;99573.84;125766;1101;103664;-81
2023/04/11 13:11:00;;;;;;;24.57;11.83;;;;;;;9.60;100.00;99566.85;125823;1099;102979;-82
2023/04/11 13:13:31;;;;;;;23.33;13.40;;;;;;;9.57;100.00;99566.78;126335;1099;102530;-82
2023/04/11 13:16:03;;;;;;;21.23;11.47;;;;;;;9.54;100.00;99573.72;126009;1099;102913;-83
2023/04/11 13:18:35;;;;;;;21.53;12.43;;;;;;;9.53;100.00;99579.80;125486;1099;103395;-80
2023/04/11 13:21:09;;;;;;;24.30;13.47;;;;;;;9.52;100.00;99574.52;125062;1099;103897;-79
2023/04/11 13:23:44;;;;;;;25.23;12.43;;;;;;;9.51;100.00;99573.64;126272;1099;103113;-82
2023/04/11 13:26:22;;;;;;;25.23;12.10;;;;;;;9.52;100.00;99571.90;125808;1100;102775;-82
2023/04/11 13:28:59;;;;;;;21.70;12.20;;;;;;;9.52;100.00;99582.37;125737;1099;102406;-80
2023/04/11 13:31:32;;;;;;;24.50;13.40;;;;;;;9.52;100.00;99578.05;125036;1099;103257;-84
2023/04/11 13:34:10;;;;;;;23.98;12.78;;;;;;;9.50;100.00;99581.46;125769;1099;104165;-82
2023/04/11 13:36:50;;;;;;;24.60;13.20;;;;;;;9.51;100.00;99567.53;125232;1099;104195;-80
2023/04/11 13:39:23;;;;;;;23.23;12.73;;;;;;;9.53;100.00;99574.56;125858;1099;104101;-78
2023/04/11 13:41:57;;;;;;;23.33;11.93;;;;;;;9.54;100.00;99575.47;125020;1099;104730;-79
2023/04/11 13:44:36;;;;;;;25.30;12.47;;;;;;;9.54;100.00;99562.38;126764;1099;103051;-80
2023/04/11 13:47:12;;;;;;;26.73;13.57;;;;;;;9.54;100.00;99554.52;126130;1099;102361;-80
2023/04/11 13:49:54;;;;;;;23.93;11.57;;;;;;;9.54;100.00;99571.10;126236;1098;101890;-81
2023/04/11 13:52:29;;;;;;;22.60;11.63;;;;;;;9.53;100.00;99558.84;126856;1098;102633;-80
2023/04/11 13:55:03;;;;;;;26.85;14.43;;;;;;;9.52;100.00;99553.56;126685;1098;102436;-79
2023/04/11 13:57:36;;;;;;;29.05;14.28;;;;;;;9.52;100.00;99550.95;126214;1099;103719;-81
2023/04/11 14:00:13;;;;;;;25.20;13.43;;;;;;;9.51;100.00;99555.31;126895;1098;102549;-80
2023/04/11 14:02:46;;;;;;;28.27;15.00;;;;;;;9.52;100.00;99546.62;126805;1099;102253;-82
2023/04/11 14:05:39;;;;;;;24.57;13.37;;;;;;;9.55;100.00;99548.41;126894;1099;102582;-80
2023/04/11 14:08:12;;;;;;;25.00;13.13;;;;;;;9.56;100.00;99551.93;127056;1098;102241;-79
2023/04/11 14:10:43;;;;;;;26.80;13.17;;;;;;;9.55;100.00;99551.02;126939;1098;103216;-78
2023/04/11 14:13:19;;;;;;;23.90;12.97;;;;;;;9.51;100.00;99555.31;126824;1099;102517;-77
2023/04/11 14:16:08;;;;;;;25.50;13.10;;;;;;;9.48;100.00;99564.84;126276;1099;102372;-80
2023/04/11 14:18:43;;;;;;;26.53;12.83;;;;;;;9.46;100.00;99556.06;126761;1099;101733;-79
2023/04/11 14:21:17;;;;;;;26.57;14.73;;;;;;;9.46;100.00;99550.83;126900;1098;101965;-83
2023/04/11 14:23:49;;;;;;;25.53;14.10;;;;;;;9.46;100.00;99550.83;126918;1099;102896;-82
2023/04/11 14:26:21;;;;;;;28.77;14.27;;;;;;;9.46;100.00;99556.06;126172;1099;101604;-81
2023/04/11 14:28:57;;;;;;;31.67;16.83;;;;;;;9.46;100.00;99554.32;126275;1099;103027;-84
2023/04/11 14:31:31;;;;;;;24.47;13.20;;;;;;;9.43;100.00;99572.58;126315;1099;102499;-79
2023/04/11 14:34:05;;;;;;;24.98;13.55;;;;;;;9.41;100.00;99527.15;126872;1098;101589;-87
2023/04/11 14:36:43;;;;;;;25.53;13.47;;;;;;;9.42;100.00;99541.11;126372;1102;102701;-80
2023/04/11 14:39:17;;;;;;;24.20;13.10;;;;;;;9.39;100.00;99536.67;126141;1102;102903;-80
2023/04/11 14:41:55;;;;;;;25.62;13.15;;;;;;;9.40;100.00;99540.20;127056;1098;101408;-81
2023/04/11 14:44:31;;;;;;;22.37;11.77;;;;;;;9.37;100.00;99556.70;125857;1099;104367;-81